Howardsville, VA (24562)

7:05 AM EST on December 05, 2016 (GMT -0500)
JRR at Totier Creek | | Change Station

Elev 348 ft 37.79 °N, 78.52 °W | Updated 32 seconds ago

Overcast
Overcast
39.2 °F
Feels Like 39 °F
N
0.0
Wind Variable Wind from North
Gusts 0.0 mph

Today
High -- | Low -- °F
--% Chance of Precip.
Yesterday
High -- | Low -- °F
Precip. -- in
Pressure 29.98 in
Visibility 5.0 miles
Clouds Overcast 200 ft
Windchill 39 °F
Dew Point 39 °F
Humidity 99%
Rainfall 0.13 in
Snow Depth Not available.
7:14 AM 4:55 PM
Waxing Crescent, 31% visible
METAR KFVX 051155Z AUTO 00000KT 5SM BR OVC002 05/05 A2998 RMK AO2 60011 70036 T00450045 10051 20045
Pressure 29.98 in
Visibility 5.0 miles
Clouds Overcast 200 ft
Windchill 39 °F
Dew Point 39 °F
Humidity 99%
Rainfall 0.13 in
Snow Depth Not available.
7:14 AM 4:55 PM
Waxing Crescent, 31% visible
METAR KFVX 051155Z AUTO 00000KT 5SM BR OVC002 05/05 A2998 RMK AO2 60011 70036 T00450045 10051 20045

10-Day Weather Forecast

Almanac

Astronomy

Dec. 05, 2016 Rise Set
Actual Time
Civil Twilight
Nautical Twilight
Astronomical Twilight
Moon
Length of Visible Light
Length of Day
Tomorrow will be .
, % of the Moon is Illuminated

Today's Extremes

State Highs State Lows

Community

WunderPhotos

Upload Photos

1,955,779 photos uploaded!

WunderBlog® & News

Nearby

Air Quality

  Air Quality AQ Index Pollutant
Not available.

Snow Depth

Station Depth Elevation

Earthquake Activity

City Distance Mag. Time & Date
Minimum magnitude displayed is 2.5.

Coastal Water Temperatures

Place Temperature

Stations

Nearby Weather Stations

Station Location Temp. Windchill Dew Point Humidity Wind Precip. Elev Updated Type
                   

Watches & Warnings

There are currently no watches in effect.